sensor_id;sensor_type;location;lat;lon;timestamp;pressure;altitude;pressure_sealevel;temperature;humidity
33265;BME280;31404;53.974;-1.086;2024-02-21T00:00:37;101591.09;;;8.03;100.00
33265;BME280;31404;53.974;-1.086;2024-02-21T00:10:35;101596.40;;;9.09;100.00
33265;BME280;31404;53.974;-1.086;2024-02-21T00:15:35;101573.30;;;8.97;100.00
33265;BME280;31404;53.974;-1.086;2024-02-21T00:20:34;101573.18;;;8.70;100.00
33265;BME280;31404;53.974;-1.086;2024-02-21T00:25:34;101555.55;;;7.87;100.00
33265;BME280;31404;53.974;-1.086;2024-02-21T00:30:35;101545.63;;;8.82;100.00
33265;BME280;31404;53.974;-1.086;2024-02-21T00:35:35;101540.76;;;10.21;100.00
33265;BME280;31404;53.974;-1.086;2024-02-21T00:40:35;101520.66;;;9.31;100.00
33265;BME280;31404;53.974;-1.086;2024-02-21T00:45:34;101513.07;;;10.00;100.00
33265;BME280;31404;53.974;-1.086;2024-02-21T00:50:34;101528.65;;;9.19;100.00
33265;BME280;31404;53.974;-1.086;2024-02-21T00:55:34;101533.56;;;8.52;100.00
33265;BME280;31404;53.974;-1.086;2024-02-21T01:00:34;101527.57;;;9.31;100.00
33265;BME280;31404;53.974;-1.086;2024-02-21T01:05:36;101507.72;;;7.95;100.00
33265;BME280;31404;53.974;-1.086;2024-02-21T01:10:35;101478.15;;;8.12;100.00
33265;BME280;31404;53.974;-1.086;2024-02-21T01:15:35;101467.33;;;7.96;100.00
33265;BME280;31404;53.974;-1.086;2024-02-21T01:20:35;101460.52;;;8.78;100.00
33265;BME280;31404;53.974;-1.086;2024-02-21T01:25:35;101450.53;;;9.11;100.00
33265;BME280;31404;53.974;-1.086;2024-02-21T01:30:35;101421.92;;;9.34;100.00
33265;BME280;31404;53.974;-1.086;2024-02-21T01:35:36;101431.65;;;9.15;100.00
33265;BME280;31404;53.974;-1.086;2024-02-21T01:40:35;101413.16;;;10.55;98.59
33265;BME280;31404;53.974;-1.086;2024-02-21T01:45:35;101396.65;;;10.64;97.24
33265;BME280;31404;53.974;-1.086;2024-02-21T01:50:36;101399.61;;;10.33;96.15
33265;BME280;31404;53.974;-1.086;2024-02-21T01:55:35;101382.34;;;10.98;94.04
33265;BME280;31404;53.974;-1.086;2024-02-21T02:00:36;101366.23;;;9.75;100.00
33265;BME280;31404;53.974;-1.086;2024-02-21T02:05:35;101360.92;;;8.87;100.00
33265;BME280;31404;53.974;-1.086;2024-02-21T02:10:35;101356.23;;;9.72;100.00
33265;BME280;31404;53.974;-1.086;2024-02-21T02:20:35;101340.43;;;8.07;100.00
33265;BME280;31404;53.974;-1.086;2024-02-21T02:25:34;101328.61;;;7.96;100.00
33265;BME280;31404;53.974;-1.086;2024-02-21T02:30:36;101319.02;;;7.68;100.00
33265;BME280;31404;53.974;-1.086;2024-02-21T02:35:35;101309.97;;;8.52;100.00
33265;BME280;31404;53.974;-1.086;2024-02-21T02:40:35;101295.94;;;9.83;100.00
33265;BME280;31404;53.974;-1.086;2024-02-21T02:45:34;101300.25;;;9.17;100.00
33265;BME280;31404;53.974;-1.086;2024-02-21T02:50:34;101284.30;;;9.22;100.00
33265;BME280;31404;53.974;-1.086;2024-02-21T02:55:34;101272.58;;;7.01;100.00
33265;BME280;31404;53.974;-1.086;2024-02-21T03:00:34;101251.14;;;7.13;100.00
33265;BME280;31404;53.974;-1.086;2024-02-21T03:05:34;101232.84;;;7.01;100.00
33265;BME280;31404;53.974;-1.086;2024-02-21T03:10:34;101221.96;;;8.78;100.00
33265;BME280;31404;53.974;-1.086;2024-02-21T03:15:34;101210.36;;;8.66;100.00
33265;BME280;31404;53.974;-1.086;2024-02-21T03:20:34;101202.39;;;7.29;100.00
33265;BME280;31404;53.974;-1.086;2024-02-21T03:25:34;101187.59;;;9.24;100.00
33265;BME280;31404;53.974;-1.086;2024-02-21T03:30:34;101156.95;;;8.53;100.00
33265;BME280;31404;53.974;-1.086;2024-02-21T03:35:34;101134.33;;;7.57;100.00
33265;BME280;31404;53.974;-1.086;2024-02-21T03:40:34;101110.32;;;5.87;100.00
33265;BME280;31404;53.974;-1.086;2024-02-21T03:45:34;101097.50;;;5.90;100.00
33265;BME280;31404;53.974;-1.086;2024-02-21T03:50:34;101078.08;;;6.04;100.00
33265;BME280;31404;53.974;-1.086;2024-02-21T03:55:34;101054.04;;;5.79;100.00
33265;BME280;31404;53.974;-1.086;2024-02-21T04:00:34;101043.77;;;6.67;100.00
33265;BME280;31404;53.974;-1.086;2024-02-21T04:05:34;101038.60;;;6.11;100.00
33265;BME280;31404;53.974;-1.086;2024-02-21T04:10:34;101024.64;;;6.62;100.00
33265;BME280;31404;53.974;-1.086;2024-02-21T04:15:34;101005.61;;;6.38;100.00
33265;BME280;31404;53.974;-1.086;2024-02-21T04:20:35;101004.64;;;6.03;100.00
33265;BME280;31404;53.974;-1.086;2024-02-21T04:25:36;100991.16;;;5.28;100.00
33265;BME280;31404;53.974;-1.086;2024-02-21T04:30:35;100979.59;;;6.60;100.00
33265;BME280;31404;53.974;-1.086;2024-02-21T04:35:36;100965.74;;;6.75;100.00
33265;BME280;31404;53.974;-1.086;2024-02-21T04:40:34;100943.45;;;6.18;100.00
33265;BME280;31404;53.974;-1.086;2024-02-21T04:45:35;100932.00;;;6.08;100.00
33265;BME280;31404;53.974;-1.086;2024-02-21T04:50:34;100919.08;;;5.79;100.00
33265;BME280;31404;53.974;-1.086;2024-02-21T04:55:34;100908.94;;;5.70;100.00
33265;BME280;31404;53.974;-1.086;2024-02-21T05:00:34;100896.26;;;5.85;100.00
33265;BME280;31404;53.974;-1.086;2024-02-21T05:05:34;100873.54;;;5.40;100.00
33265;BME280;31404;53.974;-1.086;2024-02-21T05:10:34;100860.37;;;5.40;100.00
33265;BME280;31404;53.974;-1.086;2024-02-21T05:15:34;100843.90;;;5.58;100.00
33265;BME280;31404;53.974;-1.086;2024-02-21T05:20:35;100817.59;;;5.42;100.00
33265;BME280;31404;53.974;-1.086;2024-02-21T05:25:35;100804.49;;;4.95;100.00
33265;BME280;31404;53.974;-1.086;2024-02-21T05:30:35;100774.13;;;6.25;100.00
33265;BME280;31404;53.974;-1.086;2024-02-21T05:35:35;100764.14;;;5.32;100.00
33265;BME280;31404;53.974;-1.086;2024-02-21T05:40:34;100748.87;;;5.06;100.00
33265;BME280;31404;53.974;-1.086;2024-02-21T05:45:35;100734.59;;;4.63;100.00
33265;BME280;31404;53.974;-1.086;2024-02-21T05:50:35;100719.99;;;4.84;100.00
33265;BME280;31404;53.974;-1.086;2024-02-21T05:55:35;100706.13;;;5.28;100.00
33265;BME280;31404;53.974;-1.086;2024-02-21T06:00:35;100694.10;;;5.27;100.00
33265;BME280;31404;53.974;-1.086;2024-02-21T06:05:38;100679.95;;;5.78;100.00
33265;BME280;31404;53.974;-1.086;2024-02-21T06:10:35;100652.52;;;4.48;100.00
33265;BME280;31404;53.974;-1.086;2024-02-21T06:15:40;100634.36;;;5.61;100.00
33265;BME280;31404;53.974;-1.086;2024-02-21T06:20:35;100618.70;;;5.24;100.00
33265;BME280;31404;53.974;-1.086;2024-02-21T06:25:38;100604.19;;;5.69;100.00
33265;BME280;31404;53.974;-1.086;2024-02-21T06:30:35;100588.12;;;5.13;100.00
33265;BME280;31404;53.974;-1.086;2024-02-21T06:35:34;100581.75;;;5.46;100.00
33265;BME280;31404;53.974;-1.086;2024-02-21T06:40:34;100558.09;;;5.37;100.00
33265;BME280;31404;53.974;-1.086;2024-02-21T06:45:34;100557.86;;;4.80;100.00
33265;BME280;31404;53.974;-1.086;2024-02-21T06:50:34;100545.43;;;5.00;100.00
33265;BME280;31404;53.974;-1.086;2024-02-21T06:55:35;100525.72;;;5.46;100.00
33265;BME280;31404;53.974;-1.086;2024-02-21T07:00:38;100503.35;;;5.95;100.00
33265;BME280;31404;53.974;-1.086;2024-02-21T07:05:34;100482.31;;;5.60;100.00
33265;BME280;31404;53.974;-1.086;2024-02-21T07:10:34;100470.09;;;6.02;100.00
33265;BME280;31404;53.974;-1.086;2024-02-21T07:15:35;100448.96;;;6.24;100.00
33265;BME280;31404;53.974;-1.086;2024-02-21T07:20:35;100440.20;;;6.17;100.00
33265;BME280;31404;53.974;-1.086;2024-02-21T07:25:34;100426.58;;;5.69;100.00
33265;BME280;31404;53.974;-1.086;2024-02-21T07:30:34;100403.07;;;4.80;100.00
33265;BME280;31404;53.974;-1.086;2024-02-21T07:35:34;100388.62;;;5.16;100.00
33265;BME280;31404;53.974;-1.086;2024-02-21T07:40:34;100383.06;;;4.80;100.00
33265;BME280;31404;53.974;-1.086;2024-02-21T07:45:34;100361.90;;;5.44;100.00
33265;BME280;31404;53.974;-1.086;2024-02-21T07:50:34;100334.37;;;5.29;100.00
33265;BME280;31404;53.974;-1.086;2024-02-21T07:55:34;100320.20;;;4.62;100.00
33265;BME280;31404;53.974;-1.086;2024-02-21T08:00:34;100319.51;;;4.94;100.00
33265;BME280;31404;53.974;-1.086;2024-02-21T08:05:35;100293.00;;;4.74;100.00
33265;BME280;31404;53.974;-1.086;2024-02-21T08:10:34;100286.14;;;3.68;100.00
33265;BME280;31404;53.974;-1.086;2024-02-21T08:15:35;100276.18;;;3.81;100.00
33265;BME280;31404;53.974;-1.086;2024-02-21T08:20:35;100260.52;;;4.39;100.00
33265;BME280;31404;53.974;-1.086;2024-02-21T08:25:34;100252.42;;;4.02;100.00
33265;BME280;31404;53.974;-1.086;2024-02-21T08:30:34;100228.61;;;4.88;100.00
33265;BME280;31404;53.974;-1.086;2024-02-21T08:35:34;100218.76;;;5.39;100.00
33265;BME280;31404;53.974;-1.086;2024-02-21T08:40:34;100199.53;;;4.53;100.00
33265;BME280;31404;53.974;-1.086;2024-02-21T08:45:34;100182.82;;;4.95;100.00
33265;BME280;31404;53.974;-1.086;2024-02-21T08:50:34;100161.74;;;4.80;100.00
33265;BME280;31404;53.974;-1.086;2024-02-21T08:55:34;100141.29;;;4.70;100.00
33265;BME280;31404;53.974;-1.086;2024-02-21T09:00:34;100124.34;;;3.98;100.00
33265;BME280;31404;53.974;-1.086;2024-02-21T09:05:34;100112.00;;;5.02;100.00
33265;BME280;31404;53.974;-1.086;2024-02-21T09:10:34;100087.69;;;4.34;100.00
33265;BME280;31404;53.974;-1.086;2024-02-21T09:15:35;100074.74;;;4.19;100.00
33265;BME280;31404;53.974;-1.086;2024-02-21T09:20:35;100052.03;;;4.73;100.00
33265;BME280;31404;53.974;-1.086;2024-02-21T09:25:40;100042.54;;;4.39;100.00
33265;BME280;31404;53.974;-1.086;2024-02-21T09:30:35;100030.22;;;4.37;100.00
33265;BME280;31404;53.974;-1.086;2024-02-21T09:35:35;100012.57;;;5.45;100.00
33265;BME280;31404;53.974;-1.086;2024-02-21T09:40:35;99986.02;;;5.61;100.00
33265;BME280;31404;53.974;-1.086;2024-02-21T09:45:35;99969.16;;;4.42;100.00
33265;BME280;31404;53.974;-1.086;2024-02-21T09:50:36;99951.86;;;4.86;100.00
33265;BME280;31404;53.974;-1.086;2024-02-21T09:55:36;99940.59;;;5.05;100.00
33265;BME280;31404;53.974;-1.086;2024-02-21T10:00:36;99925.24;;;5.52;100.00
33265;BME280;31404;53.974;-1.086;2024-02-21T10:05:35;99901.67;;;4.56;100.00
33265;BME280;31404;53.974;-1.086;2024-02-21T10:15:35;99846.07;;;5.06;100.00
33265;BME280;31404;53.974;-1.086;2024-02-21T10:20:35;99824.14;;;5.31;100.00
33265;BME280;31404;53.974;-1.086;2024-02-21T10:25:35;99800.22;;;5.95;100.00
33265;BME280;31404;53.974;-1.086;2024-02-21T10:30:34;99797.54;;;4.89;100.00
33265;BME280;31404;53.974;-1.086;2024-02-21T10:35:35;99785.86;;;5.36;100.00
33265;BME280;31404;53.974;-1.086;2024-02-21T10:40:35;99772.07;;;5.28;100.00
33265;BME280;31404;53.974;-1.086;2024-02-21T10:45:35;99748.39;;;4.77;100.00
33265;BME280;31404;53.974;-1.086;2024-02-21T10:50:40;99741.01;;;5.49;100.00
33265;BME280;31404;53.974;-1.086;2024-02-21T11:00:36;99717.74;;;5.84;100.00
33265;BME280;31404;53.974;-1.086;2024-02-21T11:05:35;99706.66;;;5.15;100.00
33265;BME280;31404;53.974;-1.086;2024-02-21T11:15:36;99669.47;;;6.80;100.00
33265;BME280;31404;53.974;-1.086;2024-02-21T11:20:36;99663.68;;;5.89;100.00
33265;BME280;31404;53.974;-1.086;2024-02-21T11:25:35;99648.92;;;5.21;100.00
33265;BME280;31404;53.974;-1.086;2024-02-21T11:30:36;99630.62;;;5.90;100.00
33265;BME280;31404;53.974;-1.086;2024-02-21T11:35:36;99614.30;;;5.83;100.00
33265;BME280;31404;53.974;-1.086;2024-02-21T11:40:34;99599.13;;;5.79;100.00
33265;BME280;31404;53.974;-1.086;2024-02-21T11:45:34;99584.07;;;5.47;100.00
33265;BME280;31404;53.974;-1.086;2024-02-21T11:50:35;99567.05;;;5.81;100.00
33265;BME280;31404;53.974;-1.086;2024-02-21T11:55:35;99544.92;;;6.30;100.00
33265;BME280;31404;53.974;-1.086;2024-02-21T12:00:35;99536.33;;;5.83;100.00
33265;BME280;31404;53.974;-1.086;2024-02-21T12:05:34;99508.04;;;6.16;100.00
33265;BME280;31404;53.974;-1.086;2024-02-21T12:10:35;99490.59;;;5.96;100.00
33265;BME280;31404;53.974;-1.086;2024-02-21T12:15:35;99464.48;;;5.65;100.00
33265;BME280;31404;53.974;-1.086;2024-02-21T12:20:35;99436.64;;;5.87;100.00
33265;BME280;31404;53.974;-1.086;2024-02-21T12:25:34;99427.56;;;5.92;100.00
33265;BME280;31404;53.974;-1.086;2024-02-21T12:30:35;99408.13;;;6.19;100.00
33265;BME280;31404;53.974;-1.086;2024-02-21T12:35:35;99406.97;;;5.90;100.00
33265;BME280;31404;53.974;-1.086;2024-02-21T12:40:35;99379.06;;;5.31;100.00
33265;BME280;31404;53.974;-1.086;2024-02-21T12:45:35;99358.35;;;5.27;100.00
33265;BME280;31404;53.974;-1.086;2024-02-21T12:50:35;99350.43;;;5.75;100.00
33265;BME280;31404;53.974;-1.086;2024-02-21T12:55:35;99332.26;;;6.59;100.00
33265;BME280;31404;53.974;-1.086;2024-02-21T13:00:35;99322.18;;;6.65;100.00
33265;BME280;31404;53.974;-1.086;2024-02-21T13:05:35;99297.42;;;7.39;100.00
33265;BME280;31404;53.974;-1.086;2024-02-21T13:10:35;99298.36;;;7.28;100.00
33265;BME280;31404;53.974;-1.086;2024-02-21T13:15:34;99285.02;;;7.63;100.00
33265;BME280;31404;53.974;-1.086;2024-02-21T13:20:36;99276.58;;;7.77;100.00
33265;BME280;31404;53.974;-1.086;2024-02-21T13:25:35;99270.00;;;7.92;100.00
33265;BME280;31404;53.974;-1.086;2024-02-21T13:30:35;99253.07;;;7.32;100.00
33265;BME280;31404;53.974;-1.086;2024-02-21T13:35:35;99243.89;;;7.48;100.00
33265;BME280;31404;53.974;-1.086;2024-02-21T13:40:35;99234.90;;;8.19;100.00
33265;BME280;31404;53.974;-1.086;2024-02-21T13:45:35;99225.31;;;8.48;100.00
33265;BME280;31404;53.974;-1.086;2024-02-21T13:50:35;99218.97;;;7.99;100.00
33265;BME280;31404;53.974;-1.086;2024-02-21T13:55:35;99194.05;;;9.04;100.00
33265;BME280;31404;53.974;-1.086;2024-02-21T14:00:35;99191.04;;;9.22;100.00
33265;BME280;31404;53.974;-1.086;2024-02-21T14:05:35;99177.21;;;8.86;100.00
33265;BME280;31404;53.974;-1.086;2024-02-21T14:10:35;99189.65;;;8.52;100.00
33265;BME280;31404;53.974;-1.086;2024-02-21T14:15:34;99177.46;;;8.87;100.00
33265;BME280;31404;53.974;-1.086;2024-02-21T14:20:35;99158.06;;;9.21;100.00
33265;BME280;31404;53.974;-1.086;2024-02-21T14:25:35;99169.20;;;8.22;100.00
33265;BME280;31404;53.974;-1.086;2024-02-21T14:30:35;99156.22;;;9.02;100.00
33265;BME280;31404;53.974;-1.086;2024-02-21T14:35:35;99152.51;;;8.41;100.00
33265;BME280;31404;53.974;-1.086;2024-02-21T14:40:35;99148.41;;;8.77;100.00
33265;BME280;31404;53.974;-1.086;2024-02-21T14:45:35;99153.37;;;7.77;100.00
33265;BME280;31404;53.974;-1.086;2024-02-21T14:55:34;99140.13;;;8.48;100.00
33265;BME280;31404;53.974;-1.086;2024-02-21T15:00:35;99141.10;;;8.21;100.00
33265;BME280;31404;53.974;-1.086;2024-02-21T15:05:35;99137.16;;;8.42;100.00
33265;BME280;31404;53.974;-1.086;2024-02-21T15:10:34;99151.03;;;8.05;100.00
33265;BME280;31404;53.974;-1.086;2024-02-21T15:15:34;99164.53;;;7.93;100.00
33265;BME280;31404;53.974;-1.086;2024-02-21T15:20:35;99158.34;;;8.34;100.00
33265;BME280;31404;53.974;-1.086;2024-02-21T15:25:35;99161.13;;;8.60;100.00
33265;BME280;31404;53.974;-1.086;2024-02-21T15:35:35;99160.17;;;7.33;100.00
33265;BME280;31404;53.974;-1.086;2024-02-21T15:40:35;99148.58;;;8.03;100.00
33265;BME280;31404;53.974;-1.086;2024-02-21T15:45:35;99146.58;;;8.01;100.00
33265;BME280;31404;53.974;-1.086;2024-02-21T15:50:35;99147.39;;;8.17;100.00
33265;BME280;31404;53.974;-1.086;2024-02-21T15:55:34;99150.51;;;7.95;100.00
33265;BME280;31404;53.974;-1.086;2024-02-21T16:00:35;99177.08;;;7.18;100.00
33265;BME280;31404;53.974;-1.086;2024-02-21T16:05:35;99185.73;;;8.80;100.00
33265;BME280;31404;53.974;-1.086;2024-02-21T16:10:35;99191.02;;;10.82;100.00
33265;BME280;31404;53.974;-1.086;2024-02-21T16:15:34;99194.77;;;10.52;100.00
33265;BME280;31404;53.974;-1.086;2024-02-21T16:20:35;99215.60;;;9.89;100.00
33265;BME280;31404;53.974;-1.086;2024-02-21T16:25:35;99230.01;;;8.33;100.00
33265;BME280;31404;53.974;-1.086;2024-02-21T16:30:35;99235.25;;;8.74;100.00
33265;BME280;31404;53.974;-1.086;2024-02-21T16:35:35;99249.06;;;8.43;100.00
33265;BME280;31404;53.974;-1.086;2024-02-21T16:40:36;99230.11;;;7.99;100.00
33265;BME280;31404;53.974;-1.086;2024-02-21T16:45:35;99231.47;;;8.63;100.00
33265;BME280;31404;53.974;-1.086;2024-02-21T16:50:35;99230.61;;;7.88;100.00
33265;BME280;31404;53.974;-1.086;2024-02-21T16:55:35;99235.46;;;7.95;100.00
33265;BME280;31404;53.974;-1.086;2024-02-21T17:00:35;99234.23;;;8.93;100.00
33265;BME280;31404;53.974;-1.086;2024-02-21T17:05:36;99257.46;;;8.15;100.00
33265;BME280;31404;53.974;-1.086;2024-02-21T17:10:35;99265.87;;;8.03;100.00
33265;BME280;31404;53.974;-1.086;2024-02-21T17:15:35;99269.78;;;7.98;100.00
33265;BME280;31404;53.974;-1.086;2024-02-21T17:20:35;99281.99;;;7.38;100.00
33265;BME280;31404;53.974;-1.086;2024-02-21T17:25:35;99285.38;;;7.90;100.00
33265;BME280;31404;53.974;-1.086;2024-02-21T17:30:35;99285.61;;;7.29;100.00
33265;BME280;31404;53.974;-1.086;2024-02-21T17:35:35;99273.65;;;8.15;100.00
33265;BME280;31404;53.974;-1.086;2024-02-21T17:40:35;99288.99;;;8.50;100.00
33265;BME280;31404;53.974;-1.086;2024-02-21T17:45:35;99291.19;;;8.30;100.00
33265;BME280;31404;53.974;-1.086;2024-02-21T17:50:35;99290.89;;;8.49;100.00
33265;BME280;31404;53.974;-1.086;2024-02-21T17:55:35;99301.32;;;8.50;100.00
33265;BME280;31404;53.974;-1.086;2024-02-21T18:00:35;99308.59;;;8.65;100.00
33265;BME280;31404;53.974;-1.086;2024-02-21T18:05:35;99319.65;;;8.76;100.00
33265;BME280;31404;53.974;-1.086;2024-02-21T18:10:35;99312.35;;;10.39;100.00
33265;BME280;31404;53.974;-1.086;2024-02-21T18:15:35;99320.41;;;10.62;100.00
33265;BME280;31404;53.974;-1.086;2024-02-21T18:20:34;99326.83;;;10.59;100.00
33265;BME280;31404;53.974;-1.086;2024-02-21T18:25:35;99333.01;;;11.92;100.00
33265;BME280;31404;53.974;-1.086;2024-02-21T18:30:35;99335.31;;;11.49;100.00
33265;BME280;31404;53.974;-1.086;2024-02-21T18:35:35;99335.55;;;10.64;100.00
33265;BME280;31404;53.974;-1.086;2024-02-21T18:40:35;99336.56;;;9.31;100.00
33265;BME280;31404;53.974;-1.086;2024-02-21T18:45:35;99328.97;;;9.85;100.00
33265;BME280;31404;53.974;-1.086;2024-02-21T18:50:35;99332.26;;;9.23;100.00
33265;BME280;31404;53.974;-1.086;2024-02-21T18:55:35;99337.34;;;9.16;100.00
33265;BME280;31404;53.974;-1.086;2024-02-21T19:00:35;99339.01;;;9.35;100.00
33265;BME280;31404;53.974;-1.086;2024-02-21T19:05:35;99348.42;;;7.92;100.00
33265;BME280;31404;53.974;-1.086;2024-02-21T19:10:35;99345.07;;;8.16;100.00
33265;BME280;31404;53.974;-1.086;2024-02-21T19:15:35;99340.14;;;8.18;100.00
33265;BME280;31404;53.974;-1.086;2024-02-21T19:20:35;99328.72;;;7.70;100.00
33265;BME280;31404;53.974;-1.086;2024-02-21T19:25:35;99326.31;;;7.84;100.00
33265;BME280;31404;53.974;-1.086;2024-02-21T19:30:35;99327.28;;;7.77;100.00
33265;BME280;31404;53.974;-1.086;2024-02-21T19:35:35;99332.61;;;7.62;100.00
33265;BME280;31404;53.974;-1.086;2024-02-21T19:40:35;99322.41;;;6.90;100.00
33265;BME280;31404;53.974;-1.086;2024-02-21T19:45:35;99310.27;;;6.45;100.00
33265;BME280;31404;53.974;-1.086;2024-02-21T19:50:35;99315.73;;;7.99;100.00
33265;BME280;31404;53.974;-1.086;2024-02-21T19:55:34;99309.80;;;8.12;100.00
33265;BME280;31404;53.974;-1.086;2024-02-21T20:00:35;99313.93;;;7.71;100.00
33265;BME280;31404;53.974;-1.086;2024-02-21T20:05:35;99316.48;;;8.53;100.00
33265;BME280;31404;53.974;-1.086;2024-02-21T20:10:35;99309.50;;;8.93;100.00
33265;BME280;31404;53.974;-1.086;2024-02-21T20:15:35;99307.56;;;10.22;100.00
33265;BME280;31404;53.974;-1.086;2024-02-21T20:20:35;99315.01;;;10.31;100.00
33265;BME280;31404;53.974;-1.086;2024-02-21T20:25:35;99313.28;;;10.21;100.00
33265;BME280;31404;53.974;-1.086;2024-02-21T20:30:35;99318.62;;;9.50;100.00
33265;BME280;31404;53.974;-1.086;2024-02-21T20:35:35;99322.67;;;9.82;100.00
33265;BME280;31404;53.974;-1.086;2024-02-21T20:40:35;99325.69;;;10.17;100.00
33265;BME280;31404;53.974;-1.086;2024-02-21T20:45:35;99318.21;;;9.53;100.00
33265;BME280;31404;53.974;-1.086;2024-02-21T20:50:35;99327.32;;;9.49;100.00
33265;BME280;31404;53.974;-1.086;2024-02-21T20:55:35;99329.85;;;9.44;100.00
33265;BME280;31404;53.974;-1.086;2024-02-21T21:00:35;99325.97;;;10.17;100.00
33265;BME280;31404;53.974;-1.086;2024-02-21T21:05:35;99327.73;;;10.52;100.00
33265;BME280;31404;53.974;-1.086;2024-02-21T21:10:35;99325.03;;;8.24;100.00
33265;BME280;31404;53.974;-1.086;2024-02-21T21:15:35;99324.63;;;7.11;100.00
33265;BME280;31404;53.974;-1.086;2024-02-21T21:20:35;99332.34;;;8.55;100.00
33265;BME280;31404;53.974;-1.086;2024-02-21T21:25:34;99335.05;;;8.66;100.00
33265;BME280;31404;53.974;-1.086;2024-02-21T21:30:35;99334.94;;;8.49;100.00
33265;BME280;31404;53.974;-1.086;2024-02-21T21:35:35;99342.23;;;8.38;100.00
33265;BME280;31404;53.974;-1.086;2024-02-21T21:40:35;99339.89;;;8.12;100.00
33265;BME280;31404;53.974;-1.086;2024-02-21T21:45:35;99338.33;;;7.78;100.00
33265;BME280;31404;53.974;-1.086;2024-02-21T21:50:35;99327.69;;;8.96;100.00
33265;BME280;31404;53.974;-1.086;2024-02-21T21:55:35;99322.99;;;8.67;100.00
33265;BME280;31404;53.974;-1.086;2024-02-21T22:00:35;99306.54;;;9.15;100.00
33265;BME280;31404;53.974;-1.086;2024-02-21T22:05:34;99294.98;;;9.50;100.00
33265;BME280;31404;53.974;-1.086;2024-02-21T22:10:35;99278.98;;;9.84;100.00
33265;BME280;31404;53.974;-1.086;2024-02-21T22:15:35;99270.58;;;9.79;100.00
33265;BME280;31404;53.974;-1.086;2024-02-21T22:20:35;99270.47;;;9.69;100.00
33265;BME280;31404;53.974;-1.086;2024-02-21T22:25:36;99262.06;;;9.81;100.00
33265;BME280;31404;53.974;-1.086;2024-02-21T22:30:35;99253.27;;;8.64;100.00
33265;BME280;31404;53.974;-1.086;2024-02-21T22:35:34;99247.45;;;9.15;100.00
33265;BME280;31404;53.974;-1.086;2024-02-21T22:40:35;99239.81;;;9.91;100.00
33265;BME280;31404;53.974;-1.086;2024-02-21T22:45:40;99236.81;;;10.33;100.00
33265;BME280;31404;53.974;-1.086;2024-02-21T22:50:35;99237.01;;;8.99;100.00
33265;BME280;31404;53.974;-1.086;2024-02-21T22:55:35;99231.24;;;9.46;100.00
33265;BME280;31404;53.974;-1.086;2024-02-21T23:00:35;99228.09;;;9.07;100.00
33265;BME280;31404;53.974;-1.086;2024-02-21T23:05:35;99225.01;;;9.80;100.00
33265;BME280;31404;53.974;-1.086;2024-02-21T23:10:35;99220.84;;;8.51;100.00
33265;BME280;31404;53.974;-1.086;2024-02-21T23:15:35;99220.63;;;7.99;100.00
33265;BME280;31404;53.974;-1.086;2024-02-21T23:20:35;99214.12;;;8.43;100.00
33265;BME280;31404;53.974;-1.086;2024-02-21T23:25:35;99203.68;;;8.20;100.00
33265;BME280;31404;53.974;-1.086;2024-02-21T23:30:35;99209.99;;;7.51;100.00
33265;BME280;31404;53.974;-1.086;2024-02-21T23:35:35;99188.57;;;8.78;100.00
33265;BME280;31404;53.974;-1.086;2024-02-21T23:40:35;99179.42;;;9.49;100.00
33265;BME280;31404;53.974;-1.086;2024-02-21T23:45:35;99161.21;;;9.94;100.00
33265;BME280;31404;53.974;-1.086;2024-02-21T23:50:35;99156.49;;;9.11;100.00
33265;BME280;31404;53.974;-1.086;2024-02-21T23:55:35;99140.03;;;9.18;100.00
